Craigmont, Idaho
Current Conditions -  °F | °C
As of 9:15 AM on Sunday 23 Nov 2014 (Local Time) from KGIC Reporting Station
Scattered Clouds Scattered Clouds  
Wind Chill: 28°   Ceiling: Unl
Heat Index: 38°   Visibility: 10mi
Dew Point: 28°   Wind: 22mph
Humidity: 65%   Direction: 220°SW
Pressure: 30.2"   Gusts: 29mph
Location:  46.24°N, 116.47°W
Report Text: KGIC 231715Z AUTO 22019G25KT 10SM SCT075 04/M02 A3020 RMK AO1 T00361025
Loading
Personal Weather Stations






























Interactive Weather Map New forecast layout! Learn more

10-Day Weather Forecast

Advertisements
Track Severe Weather on mobile